sensor_id;sensor_type;location;lat;lon;timestamp;pressure;altitude;pressure_sealevel;temperature;humidity
81274;BME280;70753;47.908;11.274;2023-09-19T00:01:47;94531.25;;;18.16;66.39
81274;BME280;70753;47.908;11.274;2023-09-19T00:04:13;94531.00;;;18.09;65.91
81274;BME280;70753;47.908;11.274;2023-09-19T00:06:39;94531.59;;;18.27;66.44
81274;BME280;70753;47.908;11.274;2023-09-19T00:09:04;94538.78;;;18.23;65.71
81274;BME280;70753;47.908;11.274;2023-09-19T00:11:30;94538.19;;;18.17;65.09
81274;BME280;70753;47.908;11.274;2023-09-19T00:13:55;94540.09;;;18.17;65.68
81274;BME280;70753;47.908;11.274;2023-09-19T00:16:21;94549.34;;;18.28;65.46
81274;BME280;70753;47.908;11.274;2023-09-19T00:18:46;94553.28;;;18.30;65.24
81274;BME280;70753;47.908;11.274;2023-09-19T00:21:13;94554.28;;;18.26;65.55
81274;BME280;70753;47.908;11.274;2023-09-19T00:23:39;94539.19;;;18.13;65.24
81274;BME280;70753;47.908;11.274;2023-09-19T00:26:04;94547.28;;;18.13;65.11
81274;BME280;70753;47.908;11.274;2023-09-19T00:28:29;94551.09;;;18.00;65.45
81274;BME280;70753;47.908;11.274;2023-09-19T00:30:55;94551.13;;;18.12;64.91
81274;BME280;70753;47.908;11.274;2023-09-19T00:33:21;94557.63;;;18.11;65.52
81274;BME280;70753;47.908;11.274;2023-09-19T00:35:47;94552.47;;;18.06;65.92
81274;BME280;70753;47.908;11.274;2023-09-19T00:38:14;94552.94;;;18.20;65.75
81274;BME280;70753;47.908;11.274;2023-09-19T00:40:43;94555.63;;;18.20;65.71
81274;BME280;70753;47.908;11.274;2023-09-19T00:43:09;94553.72;;;18.20;65.41
81274;BME280;70753;47.908;11.274;2023-09-19T00:45:36;94560.59;;;18.30;64.60
81274;BME280;70753;47.908;11.274;2023-09-19T00:48:03;94558.03;;;18.33;64.46
81274;BME280;70753;47.908;11.274;2023-09-19T00:50:28;94558.03;;;18.33;65.61
81274;BME280;70753;47.908;11.274;2023-09-19T00:52:55;94559.94;;;18.33;64.79
81274;BME280;70753;47.908;11.274;2023-09-19T00:55:22;94564.63;;;18.24;65.68
81274;BME280;70753;47.908;11.274;2023-09-19T00:57:48;94561.47;;;18.22;65.23
81274;BME280;70753;47.908;11.274;2023-09-19T01:00:14;94564.38;;;18.17;65.55
81274;BME280;70753;47.908;11.274;2023-09-19T01:02:41;94570.97;;;17.95;66.20
81274;BME280;70753;47.908;11.274;2023-09-19T01:05:07;94578.69;;;17.85;66.60
81274;BME280;70753;47.908;11.274;2023-09-19T01:07:32;94573.63;;;18.16;66.02
81274;BME280;70753;47.908;11.274;2023-09-19T01:09:58;94585.13;;;17.80;68.00
81274;BME280;70753;47.908;11.274;2023-09-19T01:12:30;94595.03;;;17.68;69.14
81274;BME280;70753;47.908;11.274;2023-09-19T01:15:03;94601.88;;;17.86;67.87
81274;BME280;70753;47.908;11.274;2023-09-19T01:17:35;94609.69;;;18.11;66.09
81274;BME280;70753;47.908;11.274;2023-09-19T01:20:21;94600.81;;;17.78;67.02
81274;BME280;70753;47.908;11.274;2023-09-19T01:22:57;94598.28;;;17.94;66.93
81274;BME280;70753;47.908;11.274;2023-09-19T01:28:34;94586.94;;;17.88;68.49
81274;BME280;70753;47.908;11.274;2023-09-19T01:31:02;94594.41;;;18.03;66.84
81274;BME280;70753;47.908;11.274;2023-09-19T01:33:28;94597.09;;;18.03;66.55
81274;BME280;70753;47.908;11.274;2023-09-19T01:35:53;94598.09;;;18.11;66.43
81274;BME280;70753;47.908;11.274;2023-09-19T01:38:19;94602.59;;;18.07;66.44
81274;BME280;70753;47.908;11.274;2023-09-19T01:40:51;94591.81;;;18.07;66.56
81274;BME280;70753;47.908;11.274;2023-09-19T01:43:22;94607.88;;;18.03;66.59
81274;BME280;70753;47.908;11.274;2023-09-19T01:45:55;94610.22;;;18.05;66.80
81274;BME280;70753;47.908;11.274;2023-09-19T01:48:35;94610.22;;;17.93;67.19
81274;BME280;70753;47.908;11.274;2023-09-19T01:51:05;94603.63;;;18.14;66.39
81274;BME280;70753;47.908;11.274;2023-09-19T01:53:51;94617.00;;;18.11;66.48
81274;BME280;70753;47.908;11.274;2023-09-19T01:56:23;94607.25;;;18.18;64.71
81274;BME280;70753;47.908;11.274;2023-09-19T01:58:54;94604.19;;;18.20;64.95
81274;BME280;70753;47.908;11.274;2023-09-19T02:01:22;94604.66;;;18.22;65.11
81274;BME280;70753;47.908;11.274;2023-09-19T02:03:52;94611.75;;;18.26;64.19
81274;BME280;70753;47.908;11.274;2023-09-19T02:06:18;94608.06;;;18.31;63.91
81274;BME280;70753;47.908;11.274;2023-09-19T02:08:44;94613.56;;;18.34;64.48
81274;BME280;70753;47.908;11.274;2023-09-19T02:11:09;94613.69;;;18.38;64.42
81274;BME280;70753;47.908;11.274;2023-09-19T02:13:35;94617.16;;;18.38;65.11
81274;BME280;70753;47.908;11.274;2023-09-19T02:16:01;94616.69;;;18.12;66.03
81274;BME280;70753;47.908;11.274;2023-09-19T02:18:26;94627.13;;;18.14;65.77
81274;BME280;70753;47.908;11.274;2023-09-19T02:20:54;94613.09;;;18.20;66.03
81274;BME280;70753;47.908;11.274;2023-09-19T02:23:20;94625.78;;;18.08;65.84
81274;BME280;70753;47.908;11.274;2023-09-19T02:25:51;94625.69;;;18.28;65.00
81274;BME280;70753;47.908;11.274;2023-09-19T02:28:17;94624.09;;;18.27;65.04
81274;BME280;70753;47.908;11.274;2023-09-19T02:30:42;94621.88;;;18.29;64.17
81274;BME280;70753;47.908;11.274;2023-09-19T02:33:08;94623.88;;;18.20;64.38
81274;BME280;70753;47.908;11.274;2023-09-19T02:35:33;94622.66;;;18.30;64.73
81274;BME280;70753;47.908;11.274;2023-09-19T02:38:00;94627.28;;;18.29;63.88
81274;BME280;70753;47.908;11.274;2023-09-19T02:40:25;94636.78;;;18.15;63.75
81274;BME280;70753;47.908;11.274;2023-09-19T02:42:53;94622.00;;;18.33;63.25
81274;BME280;70753;47.908;11.274;2023-09-19T02:45:20;94624.03;;;18.36;63.41
81274;BME280;70753;47.908;11.274;2023-09-19T02:47:45;94614.25;;;18.31;63.86
81274;BME280;70753;47.908;11.274;2023-09-19T02:50:11;94625.94;;;18.35;63.53
81274;BME280;70753;47.908;11.274;2023-09-19T02:52:37;94622.09;;;18.36;63.19
81274;BME280;70753;47.908;11.274;2023-09-19T02:55:05;94626.50;;;18.41;62.93
81274;BME280;70753;47.908;11.274;2023-09-19T02:57:31;94630.13;;;18.45;62.43
81274;BME280;70753;47.908;11.274;2023-09-19T02:59:56;94627.56;;;18.49;62.53
81274;BME280;70753;47.908;11.274;2023-09-19T03:02:22;94637.13;;;18.46;63.00
81274;BME280;70753;47.908;11.274;2023-09-19T03:04:47;94630.13;;;18.45;62.79
81274;BME280;70753;47.908;11.274;2023-09-19T03:07:13;94634.84;;;18.36;63.94
81274;BME280;70753;47.908;11.274;2023-09-19T03:09:38;94635.13;;;18.55;62.63
81274;BME280;70753;47.908;11.274;2023-09-19T03:12:05;94629.03;;;18.46;62.35
81274;BME280;70753;47.908;11.274;2023-09-19T03:14:31;94636.19;;;18.42;62.80
81274;BME280;70753;47.908;11.274;2023-09-19T03:16:56;94634.31;;;18.55;62.75
81274;BME280;70753;47.908;11.274;2023-09-19T03:19:21;94632.97;;;18.49;62.25
81274;BME280;70753;47.908;11.274;2023-09-19T03:21:47;94631.72;;;18.46;62.50
81274;BME280;70753;47.908;11.274;2023-09-19T03:24:13;94630.28;;;18.49;62.08
81274;BME280;70753;47.908;11.274;2023-09-19T03:26:38;94633.78;;;18.61;61.64
81274;BME280;70753;47.908;11.274;2023-09-19T03:29:05;94631.00;;;18.37;62.40
81274;BME280;70753;47.908;11.274;2023-09-19T03:31:30;94619.56;;;18.52;61.76
81274;BME280;70753;47.908;11.274;2023-09-19T03:33:56;94625.63;;;18.49;61.62
81274;BME280;70753;47.908;11.274;2023-09-19T03:36:21;94618.00;;;18.51;61.88
81274;BME280;70753;47.908;11.274;2023-09-19T03:38:47;94621.53;;;18.31;61.72
81274;BME280;70753;47.908;11.274;2023-09-19T03:41:12;94614.47;;;18.38;61.85
81274;BME280;70753;47.908;11.274;2023-09-19T03:43:38;94616.63;;;18.45;61.25
81274;BME280;70753;47.908;11.274;2023-09-19T03:46:04;94620.94;;;18.46;60.97
81274;BME280;70753;47.908;11.274;2023-09-19T03:48:30;94627.41;;;18.33;61.77
81274;BME280;70753;47.908;11.274;2023-09-19T03:50:55;94631.34;;;18.35;61.68
81274;BME280;70753;47.908;11.274;2023-09-19T03:53:21;94625.72;;;18.40;62.00
81274;BME280;70753;47.908;11.274;2023-09-19T03:55:46;94630.19;;;18.36;61.03
81274;BME280;70753;47.908;11.274;2023-09-19T03:58:11;94633.69;;;18.37;61.78
81274;BME280;70753;47.908;11.274;2023-09-19T04:00:37;94636.22;;;18.54;61.24
81274;BME280;70753;47.908;11.274;2023-09-19T04:03:04;94631.50;;;18.51;60.79
81274;BME280;70753;47.908;11.274;2023-09-19T04:05:29;94630.28;;;18.49;60.96
81274;BME280;70753;47.908;11.274;2023-09-19T04:07:55;94637.16;;;18.25;61.40
81274;BME280;70753;47.908;11.274;2023-09-19T04:10:20;94635.69;;;18.28;61.75
81274;BME280;70753;47.908;11.274;2023-09-19T04:12:52;94624.91;;;18.28;61.36
81274;BME280;70753;47.908;11.274;2023-09-19T04:15:17;94632.47;;;18.02;61.44
81274;BME280;70753;47.908;11.274;2023-09-19T04:17:43;94638.38;;;18.16;60.84
81274;BME280;70753;47.908;11.274;2023-09-19T04:20:10;94640.63;;;18.14;61.26
81274;BME280;70753;47.908;11.274;2023-09-19T04:22:35;94649.28;;;18.19;60.94
81274;BME280;70753;47.908;11.274;2023-09-19T04:25:01;94643.59;;;18.33;60.80
81274;BME280;70753;47.908;11.274;2023-09-19T04:27:26;94654.59;;;18.28;61.31
81274;BME280;70753;47.908;11.274;2023-09-19T04:29:52;94662.47;;;18.33;60.49
81274;BME280;70753;47.908;11.274;2023-09-19T04:32:17;94663.56;;;18.20;60.71
81274;BME280;70753;47.908;11.274;2023-09-19T04:34:43;94661.94;;;18.07;60.89
81274;BME280;70753;47.908;11.274;2023-09-19T04:37:09;94661.06;;;18.15;60.82
81274;BME280;70753;47.908;11.274;2023-09-19T04:39:35;94665.00;;;18.17;60.98
81274;BME280;70753;47.908;11.274;2023-09-19T04:42:00;94665.84;;;18.30;60.43
81274;BME280;70753;47.908;11.274;2023-09-19T04:44:26;94674.69;;;18.18;61.14
81274;BME280;70753;47.908;11.274;2023-09-19T04:46:52;94679.13;;;18.35;60.56
81274;BME280;70753;47.908;11.274;2023-09-19T04:49:17;94685.59;;;18.22;60.80
81274;BME280;70753;47.908;11.274;2023-09-19T04:51:42;94689.34;;;17.97;61.93
81274;BME280;70753;47.908;11.274;2023-09-19T04:54:09;94690.25;;;18.01;61.50
81274;BME280;70753;47.908;11.274;2023-09-19T04:56:37;94695.66;;;18.01;61.70
81274;BME280;70753;47.908;11.274;2023-09-19T04:59:02;94700.09;;;18.17;61.44
81274;BME280;70753;47.908;11.274;2023-09-19T05:01:28;94704.59;;;18.25;61.03
81274;BME280;70753;47.908;11.274;2023-09-19T05:03:53;94715.09;;;18.27;60.87
81274;BME280;70753;47.908;11.274;2023-09-19T05:06:19;94710.34;;;18.24;61.29
81274;BME280;70753;47.908;11.274;2023-09-19T05:08:44;94710.16;;;18.08;62.09
81274;BME280;70753;47.908;11.274;2023-09-19T05:11:12;94714.84;;;18.20;61.36
81274;BME280;70753;47.908;11.274;2023-09-19T05:13:37;94719.19;;;18.12;61.60
81274;BME280;70753;47.908;11.274;2023-09-19T05:16:03;94718.41;;;18.12;62.04
81274;BME280;70753;47.908;11.274;2023-09-19T05:18:29;94719.50;;;18.11;61.91
81274;BME280;70753;47.908;11.274;2023-09-19T05:20:54;94718.69;;;18.31;61.62
81274;BME280;70753;47.908;11.274;2023-09-19T05:23:20;94727.31;;;18.45;61.57
81274;BME280;70753;47.908;11.274;2023-09-19T05:25:45;94728.91;;;18.25;61.74
81274;BME280;70753;47.908;11.274;2023-09-19T05:28:12;94724.34;;;18.38;61.39
81274;BME280;70753;47.908;11.274;2023-09-19T05:30:38;94730.38;;;18.23;62.08
81274;BME280;70753;47.908;11.274;2023-09-19T05:33:04;94733.44;;;18.33;61.62
81274;BME280;70753;47.908;11.274;2023-09-19T05:35:29;94737.84;;;18.38;61.72
81274;BME280;70753;47.908;11.274;2023-09-19T05:37:55;94743.66;;;18.28;62.33
81274;BME280;70753;47.908;11.274;2023-09-19T05:40:21;94738.13;;;18.24;62.58
81274;BME280;70753;47.908;11.274;2023-09-19T05:42:47;94740.09;;;18.36;62.24
81274;BME280;70753;47.908;11.274;2023-09-19T05:45:14;94743.00;;;18.10;62.77
81274;BME280;70753;47.908;11.274;2023-09-19T05:47:39;94743.66;;;17.66;64.30
81274;BME280;70753;47.908;11.274;2023-09-19T05:50:05;94742.91;;;17.86;64.48
81274;BME280;70753;47.908;11.274;2023-09-19T05:52:31;94742.22;;;18.10;63.54
81274;BME280;70753;47.908;11.274;2023-09-19T05:54:56;94744.03;;;18.38;63.20
81274;BME280;70753;47.908;11.274;2023-09-19T05:57:22;94746.28;;;18.57;61.85
81274;BME280;70753;47.908;11.274;2023-09-19T05:59:47;94754.44;;;18.28;62.75
81274;BME280;70753;47.908;11.274;2023-09-19T06:02:14;94753.09;;;18.34;62.87
81274;BME280;70753;47.908;11.274;2023-09-19T06:04:39;94744.56;;;18.32;62.80
81274;BME280;70753;47.908;11.274;2023-09-19T06:07:05;94754.41;;;18.16;63.19
81274;BME280;70753;47.908;11.274;2023-09-19T06:09:30;94757.34;;;18.23;63.15
81274;BME280;70753;47.908;11.274;2023-09-19T06:11:56;94756.94;;;18.33;63.00
81274;BME280;70753;47.908;11.274;2023-09-19T06:14:21;94755.44;;;18.44;61.82
81274;BME280;70753;47.908;11.274;2023-09-19T06:16:47;94746.56;;;18.23;63.30
81274;BME280;70753;47.908;11.274;2023-09-19T06:19:14;94751.53;;;18.33;63.46
81274;BME280;70753;47.908;11.274;2023-09-19T06:21:39;94758.00;;;18.73;61.83
81274;BME280;70753;47.908;11.274;2023-09-19T06:24:05;94752.34;;;18.66;62.22
81274;BME280;70753;47.908;11.274;2023-09-19T06:26:35;94747.69;;;18.87;60.80
81274;BME280;70753;47.908;11.274;2023-09-19T06:29:01;94752.53;;;18.94;61.29
81274;BME280;70753;47.908;11.274;2023-09-19T06:31:26;94750.75;;;18.98;60.66
81274;BME280;70753;47.908;11.274;2023-09-19T06:33:52;94760.50;;;18.90;61.47
81274;BME280;70753;47.908;11.274;2023-09-19T06:36:19;94766.81;;;18.94;61.49
81274;BME280;70753;47.908;11.274;2023-09-19T06:38:45;94766.06;;;19.06;60.44
81274;BME280;70753;47.908;11.274;2023-09-19T06:41:10;94762.75;;;18.88;61.62
81274;BME280;70753;47.908;11.274;2023-09-19T06:43:35;94766.81;;;18.82;61.15
81274;BME280;70753;47.908;11.274;2023-09-19T06:46:03;94768.75;;;19.06;60.32
81274;BME280;70753;47.908;11.274;2023-09-19T06:48:29;94769.78;;;19.13;60.33
81274;BME280;70753;47.908;11.274;2023-09-19T06:50:54;94766.31;;;19.25;59.57
81274;BME280;70753;47.908;11.274;2023-09-19T06:53:21;94763.03;;;19.20;60.11
81274;BME280;70753;47.908;11.274;2023-09-19T06:55:46;94773.16;;;19.23;59.41
81274;BME280;70753;47.908;11.274;2023-09-19T06:58:12;94779.94;;;19.17;60.00
81274;BME280;70753;47.908;11.274;2023-09-19T07:00:37;94774.75;;;19.24;59.92
81274;BME280;70753;47.908;11.274;2023-09-19T07:03:05;94785.59;;;19.36;59.48
81274;BME280;70753;47.908;11.274;2023-09-19T07:05:31;94780.28;;;19.39;59.50
81274;BME280;70753;47.908;11.274;2023-09-19T07:07:57;94790.00;;;19.52;59.61
81274;BME280;70753;47.908;11.274;2023-09-19T07:10:24;94767.91;;;19.50;59.05
81274;BME280;70753;47.908;11.274;2023-09-19T07:15:20;94783.13;;;19.55;59.03
81274;BME280;70753;47.908;11.274;2023-09-19T07:17:45;94783.56;;;19.57;59.16
81274;BME280;70753;47.908;11.274;2023-09-19T07:20:11;94788.06;;;19.77;59.52
81274;BME280;70753;47.908;11.274;2023-09-19T07:22:36;94792.56;;;19.97;58.00
81274;BME280;70753;47.908;11.274;2023-09-19T07:25:02;94798.09;;;19.88;58.65
81274;BME280;70753;47.908;11.274;2023-09-19T07:27:28;94796.41;;;19.84;59.04
81274;BME280;70753;47.908;11.274;2023-09-19T07:29:54;94798.00;;;19.73;59.05
81274;BME280;70753;47.908;11.274;2023-09-19T07:32:19;94800.22;;;19.95;58.48
81274;BME280;70753;47.908;11.274;2023-09-19T07:34:45;94804.03;;;20.18;58.94
81274;BME280;70753;47.908;11.274;2023-09-19T07:37:10;94798.63;;;20.18;57.30
81274;BME280;70753;47.908;11.274;2023-09-19T07:39:35;94811.75;;;19.56;59.67
81274;BME280;70753;47.908;11.274;2023-09-19T07:42:03;94811.97;;;19.75;59.57
81274;BME280;70753;47.908;11.274;2023-09-19T07:44:30;94811.50;;;19.85;59.19
81274;BME280;70753;47.908;11.274;2023-09-19T07:46:55;94811.72;;;19.92;60.18
81274;BME280;70753;47.908;11.274;2023-09-19T07:49:20;94823.00;;;19.94;60.72
81274;BME280;70753;47.908;11.274;2023-09-19T07:51:46;94823.28;;;20.17;58.93
81274;BME280;70753;47.908;11.274;2023-09-19T07:54:11;94817.88;;;20.17;59.11
81274;BME280;70753;47.908;11.274;2023-09-19T07:56:37;94819.59;;;20.33;57.42
81274;BME280;70753;47.908;11.274;2023-09-19T07:59:03;94827.22;;;20.43;57.95
81274;BME280;70753;47.908;11.274;2023-09-19T08:01:30;94823.75;;;20.31;58.27
81274;BME280;70753;47.908;11.274;2023-09-19T08:03:55;94824.00;;;20.14;58.87
81274;BME280;70753;47.908;11.274;2023-09-19T08:06:20;94815.59;;;20.43;57.45
81274;BME280;70753;47.908;11.274;2023-09-19T08:08:46;94816.00;;;20.29;58.63
81274;BME280;70753;47.908;11.274;2023-09-19T08:11:11;94813.94;;;20.66;57.53
81274;BME280;70753;47.908;11.274;2023-09-19T08:13:37;94808.03;;;20.76;59.25
81274;BME280;70753;47.908;11.274;2023-09-19T08:16:03;94802.41;;;20.69;57.41
81274;BME280;70753;47.908;11.274;2023-09-19T08:18:30;94811.28;;;20.82;56.38
81274;BME280;70753;47.908;11.274;2023-09-19T08:20:55;94804.03;;;20.86;56.23
81274;BME280;70753;47.908;11.274;2023-09-19T08:23:21;94808.31;;;21.14;54.55
81274;BME280;70753;47.908;11.274;2023-09-19T08:25:46;94809.09;;;21.30;55.04
81274;BME280;70753;47.908;11.274;2023-09-19T08:28:12;94818.13;;;21.50;54.25
81274;BME280;70753;47.908;11.274;2023-09-19T08:30:38;94818.22;;;21.38;53.93
81274;BME280;70753;47.908;11.274;2023-09-19T08:33:04;94814.72;;;21.53;53.56
81274;BME280;70753;47.908;11.274;2023-09-19T08:35:31;94811.81;;;21.46;53.90
81274;BME280;70753;47.908;11.274;2023-09-19T08:37:56;94818.13;;;21.50;53.86
81274;BME280;70753;47.908;11.274;2023-09-19T08:40:22;94814.41;;;21.11;55.72
81274;BME280;70753;47.908;11.274;2023-09-19T08:42:48;94822.06;;;21.37;54.46
81274;BME280;70753;47.908;11.274;2023-09-19T08:45:14;94830.47;;;21.63;53.70
81274;BME280;70753;47.908;11.274;2023-09-19T08:47:46;94812.88;;;21.73;54.19
81274;BME280;70753;47.908;11.274;2023-09-19T08:50:18;94809.00;;;22.05;52.57
81274;BME280;70753;47.908;11.274;2023-09-19T08:52:46;94818.38;;;22.07;51.91
81274;BME280;70753;47.908;11.274;2023-09-19T08:55:14;94817.25;;;22.28;51.84
81274;BME280;70753;47.908;11.274;2023-09-19T08:57:41;94820.34;;;22.61;50.88
81274;BME280;70753;47.908;11.274;2023-09-19T09:00:08;94815.47;;;22.89;50.25
81274;BME280;70753;47.908;11.274;2023-09-19T09:02:34;94828.84;;;22.98;48.74
81274;BME280;70753;47.908;11.274;2023-09-19T09:05:01;94818.06;;;22.47;48.62
81274;BME280;70753;47.908;11.274;2023-09-19T09:07:29;94823.50;;;22.12;49.54
81274;BME280;70753;47.908;11.274;2023-09-19T09:09:56;94827.53;;;22.19;49.36
81274;BME280;70753;47.908;11.274;2023-09-19T09:12:21;94839.94;;;22.00;51.23
81274;BME280;70753;47.908;11.274;2023-09-19T09:14:48;94831.22;;;22.10;50.62
81274;BME280;70753;47.908;11.274;2023-09-19T09:17:14;94832.53;;;22.17;51.28
81274;BME280;70753;47.908;11.274;2023-09-19T09:19:39;94828.13;;;22.28;50.17
81274;BME280;70753;47.908;11.274;2023-09-19T09:22:08;94828.88;;;21.93;50.92
81274;BME280;70753;47.908;11.274;2023-09-19T09:24:34;94826.56;;;22.27;50.31
81274;BME280;70753;47.908;11.274;2023-09-19T09:27:03;94832.25;;;22.22;49.74
81274;BME280;70753;47.908;11.274;2023-09-19T09:29:41;94838.66;;;22.48;49.11
81274;BME280;70753;47.908;11.274;2023-09-19T09:32:16;94828.91;;;23.43;47.39
81274;BME280;70753;47.908;11.274;2023-09-19T09:34:42;94824.72;;;24.20;46.20
81274;BME280;70753;47.908;11.274;2023-09-19T09:37:13;94828.41;;;25.57;42.93
81274;BME280;70753;47.908;11.274;2023-09-19T09:39:38;94825.38;;;26.13;40.43
81274;BME280;70753;47.908;11.274;2023-09-19T09:42:05;94821.75;;;26.02;41.17
81274;BME280;70753;47.908;11.274;2023-09-19T09:44:31;94823.22;;;26.43;38.80
81274;BME280;70753;47.908;11.274;2023-09-19T09:46:56;94829.56;;;26.61;38.31
81274;BME280;70753;47.908;11.274;2023-09-19T09:49:22;94833.06;;;26.58;38.56
81274;BME280;70753;47.908;11.274;2023-09-19T09:51:49;94818.44;;;26.26;39.16
81274;BME280;70753;47.908;11.274;2023-09-19T09:54:16;94826.06;;;26.65;39.76
81274;BME280;70753;47.908;11.274;2023-09-19T09:56:55;94819.78;;;27.57;37.14
81274;BME280;70753;47.908;11.274;2023-09-19T09:59:22;94817.81;;;27.75;36.75
81274;BME280;70753;47.908;11.274;2023-09-19T10:01:48;94824.47;;;27.67;37.19
81274;BME280;70753;47.908;11.274;2023-09-19T10:04:27;94816.28;;;27.95;36.08
81274;BME280;70753;47.908;11.274;2023-09-19T10:06:52;94824.91;;;28.12;36.29
81274;BME280;70753;47.908;11.274;2023-09-19T10:09:18;94834.66;;;27.77;36.50
81274;BME280;70753;47.908;11.274;2023-09-19T10:11:45;94830.66;;;27.32;38.39
81274;BME280;70753;47.908;11.274;2023-09-19T10:14:11;94833.06;;;27.62;36.40
81274;BME280;70753;47.908;11.274;2023-09-19T10:16:45;94833.84;;;27.66;36.78
81274;BME280;70753;47.908;11.274;2023-09-19T10:19:15;94840.66;;;26.93;37.61
81274;BME280;70753;47.908;11.274;2023-09-19T10:24:43;94839.69;;;24.89;41.14
81274;BME280;70753;47.908;11.274;2023-09-19T10:27:09;94844.06;;;24.38;42.64
81274;BME280;70753;47.908;11.274;2023-09-19T10:29:36;94844.34;;;24.29;44.46
81274;BME280;70753;47.908;11.274;2023-09-19T10:32:06;94836.66;;;24.65;41.47
81274;BME280;70753;47.908;11.274;2023-09-19T10:34:34;94840.16;;;24.09;43.45
81274;BME280;70753;47.908;11.274;2023-09-19T10:37:02;94839.63;;;23.55;44.35
81274;BME280;70753;47.908;11.274;2023-09-19T10:39:29;94846.88;;;23.47;44.85
81274;BME280;70753;47.908;11.274;2023-09-19T10:41:56;94851.59;;;23.31;45.46
81274;BME280;70753;47.908;11.274;2023-09-19T10:44:26;94854.34;;;23.31;45.81
81274;BME280;70753;47.908;11.274;2023-09-19T10:46:52;94854.38;;;22.93;46.07
81274;BME280;70753;47.908;11.274;2023-09-19T10:49:20;94851.50;;;22.67;47.08
81274;BME280;70753;47.908;11.274;2023-09-19T10:51:47;94845.91;;;22.98;45.62
81274;BME280;70753;47.908;11.274;2023-09-19T10:54:15;94861.81;;;24.02;42.24
81274;BME280;70753;47.908;11.274;2023-09-19T10:56:43;94865.56;;;23.94;43.08
81274;BME280;70753;47.908;11.274;2023-09-19T10:59:12;94859.22;;;23.87;42.37
81274;BME280;70753;47.908;11.274;2023-09-19T11:01:46;94856.91;;;23.89;41.34
81274;BME280;70753;47.908;11.274;2023-09-19T11:04:23;94856.97;;;23.70;42.10
81274;BME280;70753;47.908;11.274;2023-09-19T11:06:59;94859.94;;;23.38;41.93
81274;BME280;70753;47.908;11.274;2023-09-19T11:09:42;94853.47;;;23.27;43.36
81274;BME280;70753;47.908;11.274;2023-09-19T11:12:08;94852.31;;;23.47;42.29
81274;BME280;70753;47.908;11.274;2023-09-19T11:14:41;94850.44;;;23.74;42.42
81274;BME280;70753;47.908;11.274;2023-09-19T11:17:40;94851.78;;;23.61;41.99
81274;BME280;70753;47.908;11.274;2023-09-19T11:20:31;94852.63;;;23.65;43.01
81274;BME280;70753;47.908;11.274;2023-09-19T11:23:19;94855.59;;;23.79;42.95
81274;BME280;70753;47.908;11.274;2023-09-19T11:25:45;94860.38;;;23.86;43.17
81274;BME280;70753;47.908;11.274;2023-09-19T11:28:33;94852.50;;;23.58;42.93
81274;BME280;70753;47.908;11.274;2023-09-19T11:34:42;94843.16;;;23.17;42.17
81274;BME280;70753;47.908;11.274;2023-09-19T11:40:27;94853.78;;;23.03;44.43
81274;BME280;70753;47.908;11.274;2023-09-19T11:42:53;94845.84;;;23.33;45.20
81274;BME280;70753;47.908;11.274;2023-09-19T11:48:23;94847.59;;;23.44;44.55
81274;BME280;70753;47.908;11.274;2023-09-19T11:50:49;94845.84;;;23.55;44.73
81274;BME280;70753;47.908;11.274;2023-09-19T11:53:15;94853.53;;;23.73;43.95
81274;BME280;70753;47.908;11.274;2023-09-19T11:55:42;94846.47;;;23.68;42.96
81274;BME280;70753;47.908;11.274;2023-09-19T11:58:08;94840.75;;;23.54;44.11
81274;BME280;70753;47.908;11.274;2023-09-19T12:00:35;94846.00;;;23.43;44.19
81274;BME280;70753;47.908;11.274;2023-09-19T12:05:32;94830.13;;;23.26;44.39
81274;BME280;70753;47.908;11.274;2023-09-19T12:07:57;94839.34;;;22.80;44.76
81274;BME280;70753;47.908;11.274;2023-09-19T12:10:23;94834.78;;;22.84;44.49
81274;BME280;70753;47.908;11.274;2023-09-19T12:12:50;94825.00;;;23.02;43.79
81274;BME280;70753;47.908;11.274;2023-09-19T12:15:22;94831.03;;;22.73;44.63
81274;BME280;70753;47.908;11.274;2023-09-19T12:17:48;94838.06;;;22.93;44.00
81274;BME280;70753;47.908;11.274;2023-09-19T12:20:13;94833.53;;;23.01;43.74
81274;BME280;70753;47.908;11.274;2023-09-19T12:22:39;94836.13;;;22.94;44.59
81274;BME280;70753;47.908;11.274;2023-09-19T12:25:06;94829.69;;;22.82;44.22
81274;BME280;70753;47.908;11.274;2023-09-19T12:27:41;94834.47;;;23.08;44.77
81274;BME280;70753;47.908;11.274;2023-09-19T12:30:09;94831.50;;;23.36;44.37
81274;BME280;70753;47.908;11.274;2023-09-19T12:32:36;94836.41;;;23.30;43.63
81274;BME280;70753;47.908;11.274;2023-09-19T12:35:01;94825.00;;;23.40;43.60
81274;BME280;70753;47.908;11.274;2023-09-19T12:37:27;94822.56;;;23.35;43.29
81274;BME280;70753;47.908;11.274;2023-09-19T12:39:53;94825.84;;;23.44;44.15
81274;BME280;70753;47.908;11.274;2023-09-19T12:42:19;94826.38;;;23.53;43.90
81274;BME280;70753;47.908;11.274;2023-09-19T12:44:47;94829.81;;;23.50;43.49
81274;BME280;70753;47.908;11.274;2023-09-19T12:47:15;94825.94;;;23.74;43.64
81274;BME280;70753;47.908;11.274;2023-09-19T12:50:09;94818.50;;;23.71;43.90
81274;BME280;70753;47.908;11.274;2023-09-19T12:52:36;94824.50;;;23.57;42.76
81274;BME280;70753;47.908;11.274;2023-09-19T12:55:01;94823.09;;;23.67;43.10
81274;BME280;70753;47.908;11.274;2023-09-19T12:57:27;94817.56;;;23.18;43.36
81274;BME280;70753;47.908;11.274;2023-09-19T12:59:53;94813.72;;;23.64;42.83
81274;BME280;70753;47.908;11.274;2023-09-19T13:02:19;94809.66;;;23.78;42.69
81274;BME280;70753;47.908;11.274;2023-09-19T13:04:52;94808.69;;;23.89;41.24
81274;BME280;70753;47.908;11.274;2023-09-19T13:07:41;94799.31;;;23.87;41.16
81274;BME280;70753;47.908;11.274;2023-09-19T13:10:07;94796.34;;;23.99;42.22
81274;BME280;70753;47.908;11.274;2023-09-19T13:12:37;94800.56;;;23.93;42.21